Time,TemperatureF,DewpointF,PressureIn,WindDirection,WindDirectionDegrees,WindSpeedMPH,WindSpeedGustMPH,Humidity,HourlyPrecipIn,Conditions,Clouds,dailyrainin,SoftwareType,DateUTC
2013-08-18 00:02:00,-999.0,-99.9,30.26,SW,235,0.0,1.0,-999,0.00,,,0.00,,2013-08-18 04:02:00,
2013-08-18 00:13:00,61.0,59.0,30.26,SW,235,0.0,1.0,93,0.00,,,0.00,,2013-08-18 04:13:00,
2013-08-18 00:23:00,61.0,59.0,30.26,SW,226,1.0,1.0,93,0.00,,,0.00,,2013-08-18 04:23:00,
2013-08-18 00:42:00,61.0,59.0,30.25,SW,217,1.0,1.0,93,0.00,,,0.00,,2013-08-18 04:42:00,
2013-08-18 00:53:00,61.0,59.0,30.25,SSW,210,1.0,1.0,93,0.00,,,0.00,,2013-08-18 04:53:00,
2013-08-18 01:12:00,61.0,59.0,30.25,SSW,210,1.0,1.0,92,0.00,,,0.00,,2013-08-18 05:12:00,
2013-08-18 01:22:00,61.0,59.0,30.24,SSW,194,1.0,2.0,92,0.00,,,0.00,,2013-08-18 05:22:00,
2013-08-18 01:42:00,61.0,59.0,30.24,SSW,194,0.0,1.0,92,0.00,,,0.00,,2013-08-18 05:42:00,
2013-08-18 01:52:00,62.0,59.0,30.24,SSW,194,1.0,1.0,91,0.00,,,0.00,,2013-08-18 05:52:00,
2013-08-18 02:11:00,61.0,58.0,30.24,SSW,194,1.0,2.0,90,0.00,,,0.00,,2013-08-18 06:11:00,
2013-08-18 02:21:00,62.0,59.0,30.24,SSW,193,1.0,1.0,90,0.00,,,0.00,,2013-08-18 06:21:00,
2013-08-18 02:42:00,62.0,59.0,30.24,SSW,193,1.0,1.0,89,0.00,,,0.00,,2013-08-18 06:42:00,
2013-08-18 02:52:00,62.0,58.0,30.24,SSW,193,1.0,2.0,88,0.00,,,0.00,,2013-08-18 06:52:00,
2013-08-18 03:11:00,62.0,58.0,30.24,South,191,1.0,2.0,88,0.00,,,0.00,,2013-08-18 07:11:00,
2013-08-18 03:22:00,62.0,58.0,30.24,South,180,1.0,2.0,88,0.00,,,0.00,,2013-08-18 07:22:00,
2013-08-18 03:42:00,62.0,58.0,30.24,South,180,1.0,1.0,87,0.00,,,0.00,,2013-08-18 07:42:00,
2013-08-18 03:52:00,63.0,59.0,30.24,South,180,0.0,1.0,87,0.00,,,0.00,,2013-08-18 07:52:00,
2013-08-18 04:12:00,61.0,58.0,30.25,South,181,0.0,1.0,89,0.00,,,0.00,,2013-08-18 08:12:00,
2013-08-18 04:21:00,60.0,57.0,30.25,South,180,0.0,1.0,91,0.00,,,0.00,,2013-08-18 08:21:00,
2013-08-18 04:52:00,59.0,56.0,30.25,SSW,201,0.0,1.0,91,0.00,,,0.00,,2013-08-18 08:52:00,
2013-08-18 05:11:00,58.0,56.0,30.25,SSW,201,0.0,1.0,92,0.00,,,0.00,,2013-08-18 09:11:00,
2013-08-18 05:21:00,58.0,56.0,30.24,SSW,201,0.0,0.0,93,0.00,,,0.00,,2013-08-18 09:21:00,
2013-08-18 05:43:00,57.0,55.0,30.24,SSW,201,0.0,1.0,93,0.00,,,0.00,,2013-08-18 09:43:00,
2013-08-18 05:53:00,57.0,55.0,30.24,SSW,201,0.0,0.0,94,0.00,,,0.00,,2013-08-18 09:53:00,
2013-08-18 06:13:00,57.0,55.0,30.25,SSW,201,0.0,0.0,94,0.00,,,0.00,,2013-08-18 10:13:00,
2013-08-18 06:23:00,57.0,55.0,30.25,SSW,201,0.0,0.0,94,0.00,,,0.00,,2013-08-18 10:23:00,
2013-08-18 06:42:00,57.0,55.0,30.25,SSW,201,0.0,0.0,94,0.00,,,0.00,,2013-08-18 10:42:00,
2013-08-18 06:52:00,57.0,55.0,30.25,SSW,201,0.0,0.0,94,0.00,,,0.00,,2013-08-18 10:52:00,
2013-08-18 07:11:00,57.0,56.0,30.25,SSW,201,0.0,0.0,95,0.00,,,0.00,,2013-08-18 11:11:00,
2013-08-18 07:22:00,58.0,57.0,30.25,SSW,201,0.0,0.0,95,0.00,,,0.00,,2013-08-18 11:22:00,
2013-08-18 07:42:00,58.0,57.0,30.25,SSW,201,0.0,0.0,95,0.00,,,0.00,,2013-08-18 11:42:00,
2013-08-18 07:52:00,59.0,58.0,30.26,SSW,201,0.0,0.0,95,0.00,,,0.00,,2013-08-18 11:52:00,
2013-08-18 08:11:00,61.0,60.0,30.26,SSW,201,0.0,0.0,96,0.00,,,0.00,,2013-08-18 12:11:00,
2013-08-18 08:21:00,63.0,62.0,30.25,SSW,201,0.0,0.0,95,0.00,,,0.00,,2013-08-18 12:21:00,
2013-08-18 08:42:00,65.0,62.0,30.25,NW,309,0.0,4.0,91,0.00,,,0.00,,2013-08-18 12:42:00,
2013-08-18 08:52:00,67.0,62.0,30.26,WNW,293,0.0,2.0,85,0.00,,,0.00,,2013-08-18 12:52:00,
2013-08-18 09:11:00,68.0,63.0,30.25,SW,218,0.0,0.0,85,0.00,,,0.00,,2013-08-18 13:11:00,
2013-08-18 09:21:00,69.0,63.0,30.25,SW,224,0.0,0.0,80,0.00,,,0.00,,2013-08-18 13:21:00,
2013-08-18 09:42:00,70.0,63.0,30.25,WSW,249,0.0,0.0,79,0.00,,,0.00,,2013-08-18 13:42:00,
2013-08-18 09:52:00,72.0,64.0,30.25,SSW,207,0.0,0.0,76,0.00,,,0.00,,2013-08-18 13:52:00,
2013-08-18 10:11:00,73.0,64.0,30.24,South,187,0.0,1.0,73,0.00,,,0.00,,2013-08-18 14:11:00,
2013-08-18 10:21:00,74.0,64.0,30.24,SSW,203,0.0,0.0,70,0.00,,,0.00,,2013-08-18 14:21:00,
2013-08-18 10:53:00,75.0,63.0,30.23,NW,310,0.0,0.0,67,0.00,,,0.00,,2013-08-18 14:53:00,
2013-08-18 11:12:00,76.0,64.0,30.24,SSE,157,0.0,0.0,66,0.00,,,0.00,,2013-08-18 15:12:00,
2013-08-18 11:22:00,78.0,63.0,30.24,SSE,167,0.0,4.0,60,0.00,,,0.00,,2013-08-18 15:22:00,
2013-08-18 11:43:00,79.0,61.0,30.23,WSW,239,2.0,6.0,55,0.00,,,0.00,,2013-08-18 15:43:00,
2013-08-18 11:54:00,79.0,61.0,30.23,South,183,1.0,2.0,55,0.00,,,0.00,,2013-08-18 15:54:00,
2013-08-18 12:13:00,80.0,62.0,30.23,WSW,257,2.0,4.0,55,0.00,,,0.00,,2013-08-18 16:13:00,
2013-08-18 12:23:00,80.0,60.0,30.22,WSW,255,2.0,4.0,51,0.00,,,0.00,,2013-08-18 16:23:00,
2013-08-18 12:42:00,81.0,61.0,30.22,SSE,165,0.0,2.0,51,0.00,,,0.00,,2013-08-18 16:42:00,
2013-08-18 12:52:00,81.0,61.0,30.21,WSW,252,2.0,3.0,51,0.00,,,0.00,,2013-08-18 16:52:00,
2013-08-18 13:13:00,80.0,62.0,30.21,WSW,249,1.0,3.0,55,0.00,,,0.00,,2013-08-18 17:13:00,
2013-08-18 13:24:00,80.0,62.0,30.20,SSW,212,1.0,4.0,54,0.00,,,0.00,,2013-08-18 17:24:00,
2013-08-18 13:42:00,80.0,64.0,30.20,SSE,152,3.0,6.0,59,0.00,,,0.00,,2013-08-18 17:42:00,
2013-08-18 13:52:00,78.0,64.0,30.20,SSE,165,2.0,6.0,62,0.00,,,0.00,,2013-08-18 17:52:00,
2013-08-18 14:12:00,77.0,64.0,30.20,South,180,2.0,4.0,64,0.00,,,0.00,,2013-08-18 18:12:00,
2013-08-18 14:21:00,76.0,64.0,30.19,South,174,1.0,3.0,66,0.00,,,0.00,,2013-08-18 18:21:00,
2013-08-18 14:42:00,76.0,65.0,30.19,SSW,213,2.0,6.0,68,0.00,,,0.00,,2013-08-18 18:42:00,
2013-08-18 14:52:00,76.0,65.0,30.18,SW,232,1.0,2.0,68,0.00,,,0.00,,2013-08-18 18:52:00,
2013-08-18 15:11:00,76.0,65.0,30.17,SSW,194,1.0,3.0,69,0.00,,,0.00,,2013-08-18 19:11:00,
2013-08-18 15:22:00,76.0,65.0,30.16,SW,221,1.0,3.0,69,0.00,,,0.00,,2013-08-18 19:22:00,
2013-08-18 15:42:00,76.0,65.0,30.16,SW,231,1.0,2.0,69,0.00,,,0.00,,2013-08-18 19:42:00,
2013-08-18 15:52:00,76.0,65.0,30.16,South,187,1.0,3.0,69,0.00,,,0.00,,2013-08-18 19:52:00,
2013-08-18 16:12:00,77.0,65.0,30.15,South,190,2.0,4.0,66,0.00,,,0.00,,2013-08-18 20:12:00,
2013-08-18 16:22:00,77.0,65.0,30.14,South,181,0.0,3.0,67,0.00,,,0.00,,2013-08-18 20:22:00,
2013-08-18 16:52:00,77.0,65.0,30.13,SSW,212,1.0,3.0,66,0.00,,,0.00,,2013-08-18 20:52:00,
2013-08-18 17:11:00,77.0,65.0,30.12,SW,218,0.0,1.0,67,0.00,,,0.00,,2013-08-18 21:11:00,
2013-08-18 17:22:00,77.0,66.0,30.12,SSW,200,0.0,1.0,68,0.00,,,0.00,,2013-08-18 21:22:00,
2013-08-18 17:53:00,74.0,63.0,30.12,SW,217,1.0,2.0,69,0.00,,,0.00,,2013-08-18 21:53:00,
2013-08-18 18:13:00,73.0,63.0,30.12,SSW,203,1.0,3.0,70,0.00,,,0.00,,2013-08-18 22:13:00,
2013-08-18 18:23:00,72.0,62.0,30.11,South,183,1.0,3.0,71,0.00,,,0.00,,2013-08-18 22:23:00,
2013-08-18 18:42:00,72.0,63.0,30.11,SSW,205,1.0,2.0,73,0.00,,,0.00,,2013-08-18 22:42:00,
2013-08-18 18:52:00,71.0,63.0,30.11,SW,228,1.0,1.0,75,0.00,,,0.00,,2013-08-18 22:52:00,
2013-08-18 19:11:00,71.0,63.0,30.10,SSW,194,1.0,2.0,76,0.00,,,0.00,,2013-08-18 23:11:00,
2013-08-18 19:22:00,70.0,63.0,30.10,SW,232,1.0,2.0,78,0.00,,,0.00,,2013-08-18 23:22:00,
2013-08-18 19:42:00,70.0,63.0,30.10,SW,225,0.0,1.0,79,0.00,,,0.00,,2013-08-18 23:42:00,
2013-08-18 19:52:00,69.0,63.0,30.10,SSW,198,1.0,2.0,80,0.00,,,0.00,,2013-08-18 23:52:00,
2013-08-18 20:12:00,69.0,63.0,30.10,SSW,194,1.0,2.0,81,0.00,,,0.00,,2013-08-19 00:12:00,
2013-08-18 20:21:00,68.0,63.0,30.10,SSW,212,1.0,1.0,83,0.00,,,0.00,,2013-08-19 00:21:00,
2013-08-18 20:42:00,68.0,63.0,30.10,SSW,198,1.0,2.0,83,0.00,,,0.00,,2013-08-19 00:42:00,
2013-08-18 20:52:00,68.0,63.0,30.11,SSW,198,1.0,3.0,84,0.00,,,0.00,,2013-08-19 00:52:00,
2013-08-18 21:11:00,67.0,62.0,30.10,SSW,203,1.0,2.0,85,0.00,,,0.00,,2013-08-19 01:11:00,
2013-08-18 21:22:00,67.0,62.0,30.10,South,186,1.0,2.0,85,0.00,,,0.00,,2013-08-19 01:22:00,
2013-08-18 21:42:00,68.0,62.0,30.09,South,191,1.0,2.0,80,0.00,,,0.00,,2013-08-19 01:42:00,
2013-08-18 21:52:00,68.0,61.0,30.09,South,191,1.0,2.0,79,0.00,,,0.00,,2013-08-19 01:52:00,
2013-08-18 22:11:00,68.0,61.0,30.09,SSW,194,1.0,2.0,79,0.00,,,0.00,,2013-08-19 02:11:00,
2013-08-18 22:22:00,68.0,61.0,30.09,South,176,1.0,2.0,78,0.00,,,0.00,,2013-08-19 02:22:00,
2013-08-18 22:42:00,67.0,60.0,30.08,South,184,1.0,2.0,78,0.00,,,0.00,,2013-08-19 02:42:00,
2013-08-18 22:52:00,67.0,60.0,30.08,SSW,200,1.0,2.0,78,0.00,,,0.00,,2013-08-19 02:52:00,
2013-08-18 23:11:00,67.0,60.0,30.08,SSW,193,1.0,3.0,78,0.00,,,0.00,,2013-08-19 03:11:00,
2013-08-18 23:21:00,67.0,60.0,30.06,South,180,1.0,2.0,78,0.00,,,0.00,,2013-08-19 03:21:00,
2013-08-18 23:42:00,67.0,60.0,30.06,SW,231,1.0,2.0,79,0.00,,,0.00,,2013-08-19 03:42:00,
2013-08-18 23:53:00,67.0,60.0,30.06,SSW,201,2.0,4.0,79,0.00,,,0.00,,2013-08-19 03:53:00,